LIRQ/FLR METAR and TAF weather

Enter ICAO airport designator
Station Type Date Time Source
LIRQ METAR 2024/06/14 02:50 UTC NOAA

LIRQ 140250Z VRB02KT 9999 BKN030 16/13 Q1018


Station Type Date Time Source
LIRQ Decoded METAR 2024/06/14 02:50 UTC NOAA

Firenze / Peretola, Italy (LIRQ) 43-48N 011-12E 38M
Jun 13, 2024 - 10:50 PM EDT / 2024.06.14 0250 UTC
Wind: Variable at 2 MPH (2 KT):0
Visibility: greater than 7 mile(s):0
Sky conditions: mostly cloudy
Temperature: 60 F (16 C)
Dew Point: 55 F (13 C)
Relative Humidity: 82%
Pressure (altimeter): 30.06 in. Hg (1018 hPa)
ob: LIRQ 140250Z VRB02KT 9999 BKN030 16/13 Q1018
cycle: 3

Station Type Date Time Source
LIRQ TAF 2024/06/13 18:21 UTC NOAA